This is the latest recevied weather packets stored in our database for station/object DM0MR. If no packets are shown the sender has not sent any weather packets the latest 10 day(s).
| Time | Temp. | Humidity | Pressure | Rain* | Wind** | Luminosity | Snow |
|---|---|---|---|---|---|---|---|
| 1788033196 | 17.78° C | 83% | 1010.8 hPa | 0 mm | - | - | - |
| 1788032296 | 17.78° C | 81% | 1010.6 hPa | 0 mm | - | - | - |
| 1788029597 | 17.78° C | 80% | 1010.3 hPa | 0 mm | - | - | - |
| 1788028697 | 17.78° C | 81% | 1010.3 hPa | 0 mm | - | - | - |
| 1788027796 | 18.33° C | 80% | 1010 hPa | 0 mm | - | - | - |
| 1788025997 | 19.44° C | 75% | 1010 hPa | 0 mm | - | - | - |
| 1788025096 | 20° C | 69% | 1010.1 hPa | 0 mm | - | - | - |
| 1788024196 | 20.56° C | 68% | 1010 hPa | 0 mm | - | - | - |
| 1788022397 | 21.67° C | 63% | 1010.2 hPa | 0 mm | - | - | - |
| 1788021496 | 21.67° C | 62% | 1010.3 hPa | 0 mm | - | - | - |
| 1788020596 | 22.22° C | 61% | 1010.3 hPa | 0 mm | - | - | - |
| 1788019696 | 22.22° C | 58% | 1010.5 hPa | 0 mm | - | - | - |
| 1788018795 | 22.22° C | 60% | 1010.5 hPa | 0 mm | - | - | - |
| 1788015196 | 23.89° C | 52% | 1010.5 hPa | 0 mm | - | - | - |
| 1788011594 | 23.89° C | 53% | 1010.9 hPa | 0 mm | - | - | - |
| 1788010697 | 26.11° C | 50% | 1011 hPa | 0 mm | - | - | - |
| 1788009796 | 26.11° C | 50% | 1011 hPa | 0 mm | - | - | - |
| 1788008894 | 25.56° C | 49% | 1011.1 hPa | 0 mm | - | - | - |
| 1788005295 | 25.56° C | 47% | 1011.3 hPa | 0 mm | - | - | - |
| 1788004396 | 22.78° C | 56% | 1011.5 hPa | 0 mm | - | - | - |
| 1788002595 | 26.67° C | 46% | 1011.8 hPa | 0 mm | - | - | - |
| 1788000795 | 26.67° C | 47% | 1011.9 hPa | 0 mm | - | - | - |
| 1787998097 | 22.22° C | 64% | 1012.2 hPa | 0 mm | - | - | - |
| 1787997196 | 25° C | 53% | 1012.2 hPa | 0 mm | - | - | - |
| 1787995396 | 25° C | 55% | 1012.2 hPa | 0 mm | - | - | - |
* Rain latest hour (hover to see other rain measurements)
** Current wind speed in m/s (hover to see current wind gust speed)